Warsaw, IN

3:58 PM EDT on April 19, 2015 (GMT -0400)
Fort Wayne International | | Change Station
CLOSE
Current Station
Airport
Location: Fort Wayne,
Elevation: 827 ft
Nearby Weather Stations

Elev 827 ft 40.98 °N, 85.19 °W | Updated 4 minutes ago

Rain
Rain
55 °F
Feels Like 55 °F
N
21
Wind Variable Wind from ENE
Gusts 26 mph

Today
High -- | Low -- °F
--% Chance of Precip.
Yesterday
High -- | Low -- °F
Precip. -- in
6:58 AM 8:27 PM
New Moon, 2% visible
Pressure 29.65 in
Visibility 2.5 miles
Clouds Overcast 2300 ft
Dew Point 50 °F
Humidity 83%
Rainfall 0.21 in
Snow Depth Not available.
UV 2 out of 12
Pollen 5.70 out of 12
Air Quality Not available.
Flu Activity Local Activity
METAR KFWA 191954Z 07018G23KT 2 1/2SM RA OVC023 13/10 A2964 RMK AO2 SLP038 P0019 T01280100

More Conditions Fewer Conditions

Pressure 29.65 in
Visibility 2.5 miles
Clouds Overcast 2300 ft
Dew Point 50 °F
Humidity 83%
Rainfall 0.21 in
Snow Depth Not available.
UV 2 out of 12
Pollen 5.70 out of 12
Air Quality Not available.
Flu Activity Local Activity
METAR KFWA 191954Z 07018G23KT 2 1/2SM RA OVC023 13/10 A2964 RMK AO2 SLP038 P0019 T01280100

More Conditions Fewer Conditions

10-Day Weather Forecast

Almanac

Astronomy

Apr. 19, 2015 Rise Set
Actual Time
Civil Twilight
Nautical Twilight
Astronomical Twilight
Moon
Length of Visible Light
Length of Day
Tomorrow will be .
, % of the Moon is Illuminated

Today's Extremes

State Highs State Lows

Community

WunderPhotos

Upload Photos

1,814,950 photos uploaded!

WunderBlogs® & News

Nearby

Air Quality

  Air Quality AQ Index Pollutant
Not available.

Snow Depth

Station Depth Elevation

Earthquake Activity

City Distance Mag. Time & Date
Minimum magnitude displayed is 2.5.

Coastal Water Temperatures

Place Temperature

Stations

Nearby Weather Stations

Station Location Temp. Windchill Dew Point Humidity Wind Precip. Elev Updated Type